sensor_id;sensor_type;location;lat;lon;timestamp;pressure;altitude;pressure_sealevel;temperature;humidity
55217;BME280;41086;46.736;15.666;2023-03-04T00:02:17;98620.94;;;-0.38;100.00
55217;BME280;41086;46.736;15.666;2023-03-04T00:04:44;98621.69;;;-0.33;100.00
55217;BME280;41086;46.736;15.666;2023-03-04T00:07:11;98613.06;;;-0.35;100.00
55217;BME280;41086;46.736;15.666;2023-03-04T00:09:43;98615.94;;;-0.46;100.00
55217;BME280;41086;46.736;15.666;2023-03-04T00:12:11;98601.84;;;-0.78;100.00
55217;BME280;41086;46.736;15.666;2023-03-04T00:14:39;98611.94;;;-0.62;100.00
55217;BME280;41086;46.736;15.666;2023-03-04T00:17:05;98611.66;;;-0.50;100.00
55217;BME280;41086;46.736;15.666;2023-03-04T00:19:33;98605.63;;;-0.52;100.00
55217;BME280;41086;46.736;15.666;2023-03-04T00:22:02;98608.41;;;-0.60;100.00
55217;BME280;41086;46.736;15.666;2023-03-04T00:24:30;98614.56;;;-0.62;100.00
55217;BME280;41086;46.736;15.666;2023-03-04T00:26:57;98613.56;;;-0.57;100.00
55217;BME280;41086;46.736;15.666;2023-03-04T00:29:24;98617.53;;;-0.40;100.00
55217;BME280;41086;46.736;15.666;2023-03-04T00:31:51;98617.31;;;-0.30;100.00
55217;BME280;41086;46.736;15.666;2023-03-04T00:34:18;98601.69;;;-0.31;100.00
55217;BME280;41086;46.736;15.666;2023-03-04T00:36:44;98604.53;;;-0.40;100.00
55217;BME280;41086;46.736;15.666;2023-03-04T00:39:11;98608.16;;;-0.49;100.00
55217;BME280;41086;46.736;15.666;2023-03-04T00:41:39;98609.28;;;-0.61;100.00
55217;BME280;41086;46.736;15.666;2023-03-04T00:44:06;98616.47;;;-0.72;100.00
55217;BME280;41086;46.736;15.666;2023-03-04T00:46:33;98612.47;;;-0.88;100.00
55217;BME280;41086;46.736;15.666;2023-03-04T00:49:00;98603.97;;;-0.97;100.00
55217;BME280;41086;46.736;15.666;2023-03-04T00:51:27;98599.63;;;-0.96;100.00
55217;BME280;41086;46.736;15.666;2023-03-04T00:53:53;98611.78;;;-0.97;100.00
55217;BME280;41086;46.736;15.666;2023-03-04T00:56:20;98598.91;;;-1.03;100.00
55217;BME280;41086;46.736;15.666;2023-03-04T00:58:47;98597.09;;;-0.99;100.00
55217;BME280;41086;46.736;15.666;2023-03-04T01:01:14;98540.94;;;-1.09;100.00
55217;BME280;41086;46.736;15.666;2023-03-04T01:03:41;98576.91;;;-0.88;100.00
55217;BME280;41086;46.736;15.666;2023-03-04T01:06:09;98594.28;;;-0.88;100.00
55217;BME280;41086;46.736;15.666;2023-03-04T01:08:37;98590.69;;;-0.83;100.00
55217;BME280;41086;46.736;15.666;2023-03-04T01:11:04;98588.78;;;-0.76;100.00
55217;BME280;41086;46.736;15.666;2023-03-04T01:13:31;98582.66;;;-0.72;100.00
55217;BME280;41086;46.736;15.666;2023-03-04T01:15:58;98581.91;;;-0.79;100.00
55217;BME280;41086;46.736;15.666;2023-03-04T01:18:26;98578.59;;;-0.85;100.00
55217;BME280;41086;46.736;15.666;2023-03-04T01:20:53;98572.59;;;-0.89;100.00
55217;BME280;41086;46.736;15.666;2023-03-04T01:23:20;98580.44;;;-0.91;100.00
55217;BME280;41086;46.736;15.666;2023-03-04T01:25:46;98581.47;;;-0.99;100.00
55217;BME280;41086;46.736;15.666;2023-03-04T01:28:13;98569.47;;;-1.05;100.00
55217;BME280;41086;46.736;15.666;2023-03-04T01:30:40;98559.28;;;-1.17;100.00
55217;BME280;41086;46.736;15.666;2023-03-04T01:33:07;98574.97;;;-1.20;100.00
55217;BME280;41086;46.736;15.666;2023-03-04T01:35:34;98574.19;;;-1.25;100.00
55217;BME280;41086;46.736;15.666;2023-03-04T01:38:01;98569.94;;;-1.29;100.00
55217;BME280;41086;46.736;15.666;2023-03-04T01:40:30;98564.75;;;-1.29;100.00
55217;BME280;41086;46.736;15.666;2023-03-04T01:42:58;98565.59;;;-1.27;100.00
55217;BME280;41086;46.736;15.666;2023-03-04T01:45:25;98555.25;;;-1.32;100.00
55217;BME280;41086;46.736;15.666;2023-03-04T01:47:51;98559.50;;;-1.28;100.00
55217;BME280;41086;46.736;15.666;2023-03-04T01:50:23;98547.47;;;-1.32;100.00
55217;BME280;41086;46.736;15.666;2023-03-04T01:52:52;98545.63;;;-1.27;100.00
55217;BME280;41086;46.736;15.666;2023-03-04T01:55:20;98542.00;;;-1.20;100.00
55217;BME280;41086;46.736;15.666;2023-03-04T01:57:48;98553.28;;;-1.19;100.00
55217;BME280;41086;46.736;15.666;2023-03-04T02:00:28;98547.19;;;-1.18;100.00
55217;BME280;41086;46.736;15.666;2023-03-04T02:03:00;98542.91;;;-1.21;100.00
55217;BME280;41086;46.736;15.666;2023-03-04T02:05:29;98532.59;;;-1.25;100.00
55217;BME280;41086;46.736;15.666;2023-03-04T02:07:57;98528.00;;;-1.14;100.00
55217;BME280;41086;46.736;15.666;2023-03-04T02:10:25;98528.97;;;-1.18;100.00
55217;BME280;41086;46.736;15.666;2023-03-04T02:12:52;98534.16;;;-1.17;100.00
55217;BME280;41086;46.736;15.666;2023-03-04T02:15:19;98531.59;;;-1.18;100.00
55217;BME280;41086;46.736;15.666;2023-03-04T02:17:46;98533.25;;;-1.16;100.00
55217;BME280;41086;46.736;15.666;2023-03-04T02:22:52;98525.31;;;-1.09;100.00
55217;BME280;41086;46.736;15.666;2023-03-04T02:25:29;98515.84;;;-1.12;100.00
55217;BME280;41086;46.736;15.666;2023-03-04T02:27:57;98516.81;;;-1.16;100.00
55217;BME280;41086;46.736;15.666;2023-03-04T02:30:24;98511.63;;;-1.18;100.00
55217;BME280;41086;46.736;15.666;2023-03-04T02:32:52;98502.13;;;-1.19;100.00
55217;BME280;41086;46.736;15.666;2023-03-04T02:35:19;98512.47;;;-1.16;100.00
55217;BME280;41086;46.736;15.666;2023-03-04T02:37:47;98490.06;;;-1.23;100.00
55217;BME280;41086;46.736;15.666;2023-03-04T02:40:24;98498.41;;;-1.07;100.00
55217;BME280;41086;46.736;15.666;2023-03-04T02:42:52;98504.38;;;-1.03;100.00
55217;BME280;41086;46.736;15.666;2023-03-04T02:45:36;98503.53;;;-1.04;100.00
55217;BME280;41086;46.736;15.666;2023-03-04T02:48:06;98484.41;;;-1.01;100.00
55217;BME280;41086;46.736;15.666;2023-03-04T02:50:42;98499.88;;;-0.95;100.00
55217;BME280;41086;46.736;15.666;2023-03-04T02:53:11;98485.13;;;-0.95;100.00
55217;BME280;41086;46.736;15.666;2023-03-04T02:55:38;98490.19;;;-0.88;100.00
55217;BME280;41086;46.736;15.666;2023-03-04T02:58:05;98491.78;;;-0.83;100.00
55217;BME280;41086;46.736;15.666;2023-03-04T03:00:32;98497.69;;;-0.75;100.00
55217;BME280;41086;46.736;15.666;2023-03-04T03:02:59;98485.56;;;-0.76;100.00
55217;BME280;41086;46.736;15.666;2023-03-04T03:05:28;98492.47;;;-0.73;100.00
55217;BME280;41086;46.736;15.666;2023-03-04T03:07:56;98490.03;;;-0.81;100.00
55217;BME280;41086;46.736;15.666;2023-03-04T03:10:24;98489.38;;;-0.91;100.00
55217;BME280;41086;46.736;15.666;2023-03-04T03:12:50;98496.47;;;-0.99;100.00
55217;BME280;41086;46.736;15.666;2023-03-04T03:15:18;98487.00;;;-1.01;100.00
55217;BME280;41086;46.736;15.666;2023-03-04T03:17:46;98486.06;;;-0.97;100.00
55217;BME280;41086;46.736;15.666;2023-03-04T03:20:14;98464.66;;;-1.12;100.00
55217;BME280;41086;46.736;15.666;2023-03-04T03:22:41;98484.56;;;-1.09;100.00
55217;BME280;41086;46.736;15.666;2023-03-04T03:25:10;98482.09;;;-1.15;100.00
55217;BME280;41086;46.736;15.666;2023-03-04T03:27:38;98478.84;;;-1.25;100.00
55217;BME280;41086;46.736;15.666;2023-03-04T03:30:07;98481.56;;;-1.31;100.00
55217;BME280;41086;46.736;15.666;2023-03-04T03:32:35;98474.88;;;-1.43;100.00
55217;BME280;41086;46.736;15.666;2023-03-04T03:35:03;98469.13;;;-1.59;100.00
55217;BME280;41086;46.736;15.666;2023-03-04T03:37:30;98475.38;;;-1.67;100.00
55217;BME280;41086;46.736;15.666;2023-03-04T03:39:57;98480.69;;;-1.73;100.00
55217;BME280;41086;46.736;15.666;2023-03-04T03:42:23;98471.31;;;-1.82;100.00
55217;BME280;41086;46.736;15.666;2023-03-04T03:44:50;98480.03;;;-1.85;100.00
55217;BME280;41086;46.736;15.666;2023-03-04T03:47:17;98466.31;;;-1.91;100.00
55217;BME280;41086;46.736;15.666;2023-03-04T03:49:44;98480.00;;;-1.83;100.00
55217;BME280;41086;46.736;15.666;2023-03-04T03:52:10;98472.19;;;-1.82;100.00
55217;BME280;41086;46.736;15.666;2023-03-04T03:54:37;98477.53;;;-1.91;100.00
55217;BME280;41086;46.736;15.666;2023-03-04T03:57:04;98469.09;;;-2.01;100.00
55217;BME280;41086;46.736;15.666;2023-03-04T03:59:31;98477.66;;;-1.95;100.00
55217;BME280;41086;46.736;15.666;2023-03-04T04:01:58;98473.38;;;-1.98;100.00
55217;BME280;41086;46.736;15.666;2023-03-04T04:04:25;98473.25;;;-1.92;100.00
55217;BME280;41086;46.736;15.666;2023-03-04T04:06:52;98474.88;;;-1.86;100.00
55217;BME280;41086;46.736;15.666;2023-03-04T04:09:19;98474.03;;;-1.87;100.00
55217;BME280;41086;46.736;15.666;2023-03-04T04:11:45;98468.91;;;-1.91;100.00
55217;BME280;41086;46.736;15.666;2023-03-04T04:14:13;98471.56;;;-1.96;100.00
55217;BME280;41086;46.736;15.666;2023-03-04T04:16:40;98465.59;;;-2.01;100.00
55217;BME280;41086;46.736;15.666;2023-03-04T04:19:06;98463.97;;;-2.05;100.00
55217;BME280;41086;46.736;15.666;2023-03-04T04:21:33;98459.75;;;-2.11;100.00
55217;BME280;41086;46.736;15.666;2023-03-04T04:24:00;98469.28;;;-2.13;100.00
55217;BME280;41086;46.736;15.666;2023-03-04T04:26:27;98464.09;;;-2.13;100.00
55217;BME280;41086;46.736;15.666;2023-03-04T04:28:53;98468.38;;;-2.12;100.00
55217;BME280;41086;46.736;15.666;2023-03-04T04:31:20;98452.00;;;-2.14;100.00
55217;BME280;41086;46.736;15.666;2023-03-04T04:33:47;98464.75;;;-2.02;100.00
55217;BME280;41086;46.736;15.666;2023-03-04T04:36:14;98464.81;;;-2.03;100.00
55217;BME280;41086;46.736;15.666;2023-03-04T04:38:42;98445.13;;;-2.16;100.00
55217;BME280;41086;46.736;15.666;2023-03-04T04:41:17;98457.19;;;-2.14;100.00
55217;BME280;41086;46.736;15.666;2023-03-04T04:43:45;98458.25;;;-2.26;100.00
55217;BME280;41086;46.736;15.666;2023-03-04T04:46:13;98449.63;;;-2.26;100.00
55217;BME280;41086;46.736;15.666;2023-03-04T04:48:41;98442.84;;;-2.35;100.00
55217;BME280;41086;46.736;15.666;2023-03-04T04:51:07;98445.38;;;-2.30;100.00
55217;BME280;41086;46.736;15.666;2023-03-04T04:53:34;98454.94;;;-2.34;100.00
55217;BME280;41086;46.736;15.666;2023-03-04T04:56:14;98445.50;;;-2.38;100.00
55217;BME280;41086;46.736;15.666;2023-03-04T04:58:44;98430.13;;;-2.50;100.00
55217;BME280;41086;46.736;15.666;2023-03-04T05:01:12;98446.53;;;-2.48;100.00
55217;BME280;41086;46.736;15.666;2023-03-04T05:03:39;98445.78;;;-2.55;100.00
55217;BME280;41086;46.736;15.666;2023-03-04T05:06:08;98451.66;;;-2.45;100.00
55217;BME280;41086;46.736;15.666;2023-03-04T05:08:35;98445.56;;;-2.41;100.00
55217;BME280;41086;46.736;15.666;2023-03-04T05:11:03;98448.97;;;-2.39;100.00
55217;BME280;41086;46.736;15.666;2023-03-04T05:13:31;98445.44;;;-2.35;100.00
55217;BME280;41086;46.736;15.666;2023-03-04T05:15:58;98449.66;;;-2.29;100.00
55217;BME280;41086;46.736;15.666;2023-03-04T05:18:26;98445.28;;;-2.26;100.00
55217;BME280;41086;46.736;15.666;2023-03-04T05:20:55;98448.69;;;-2.24;100.00
55217;BME280;41086;46.736;15.666;2023-03-04T05:23:24;98439.16;;;-2.23;100.00
55217;BME280;41086;46.736;15.666;2023-03-04T05:25:50;98448.66;;;-2.20;100.00
55217;BME280;41086;46.736;15.666;2023-03-04T05:28:18;98437.47;;;-2.22;100.00
55217;BME280;41086;46.736;15.666;2023-03-04T05:30:45;98444.28;;;-2.18;100.00
55217;BME280;41086;46.736;15.666;2023-03-04T05:33:13;98450.34;;;-2.18;100.00
55217;BME280;41086;46.736;15.666;2023-03-04T05:35:41;98446.03;;;-2.19;100.00
55217;BME280;41086;46.736;15.666;2023-03-04T05:38:11;98443.44;;;-2.19;100.00
55217;BME280;41086;46.736;15.666;2023-03-04T05:40:39;98436.56;;;-2.23;100.00
55217;BME280;41086;46.736;15.666;2023-03-04T05:43:06;98441.69;;;-2.17;100.00
55217;BME280;41086;46.736;15.666;2023-03-04T05:45:33;98433.97;;;-2.23;100.00
55217;BME280;41086;46.736;15.666;2023-03-04T05:48:00;98445.19;;;-2.21;100.00
55217;BME280;41086;46.736;15.666;2023-03-04T05:50:29;98444.41;;;-2.26;100.00
55217;BME280;41086;46.736;15.666;2023-03-04T05:52:55;98436.63;;;-2.26;100.00
55217;BME280;41086;46.736;15.666;2023-03-04T05:55:22;98445.31;;;-2.27;100.00
55217;BME280;41086;46.736;15.666;2023-03-04T05:57:49;98444.50;;;-2.31;100.00
55217;BME280;41086;46.736;15.666;2023-03-04T06:00:16;98448.94;;;-2.36;100.00
55217;BME280;41086;46.736;15.666;2023-03-04T06:02:43;98457.66;;;-2.40;100.00
55217;BME280;41086;46.736;15.666;2023-03-04T06:05:11;98435.19;;;-2.42;100.00
55217;BME280;41086;46.736;15.666;2023-03-04T06:07:39;98448.94;;;-2.36;100.00
55217;BME280;41086;46.736;15.666;2023-03-04T06:10:10;98433.44;;;-2.42;100.00
55217;BME280;41086;46.736;15.666;2023-03-04T06:12:38;98461.72;;;-2.25;100.00
55217;BME280;41086;46.736;15.666;2023-03-04T06:15:05;98457.25;;;-2.17;100.00
55217;BME280;41086;46.736;15.666;2023-03-04T06:17:32;98458.06;;;-2.15;100.00
55217;BME280;41086;46.736;15.666;2023-03-04T06:19:59;98464.03;;;-2.08;100.00
55217;BME280;41086;46.736;15.666;2023-03-04T06:22:26;98468.25;;;-2.04;100.00
55217;BME280;41086;46.736;15.666;2023-03-04T06:24:52;98469.94;;;-2.00;100.00
55217;BME280;41086;46.736;15.666;2023-03-04T06:27:19;98463.81;;;-1.97;100.00
55217;BME280;41086;46.736;15.666;2023-03-04T06:29:46;98462.88;;;-1.93;100.00
55217;BME280;41086;46.736;15.666;2023-03-04T06:32:13;98474.88;;;-1.88;100.00
55217;BME280;41086;46.736;15.666;2023-03-04T06:34:39;98474.09;;;-1.93;100.00
55217;BME280;41086;46.736;15.666;2023-03-04T06:37:06;98472.41;;;-1.92;100.00
55217;BME280;41086;46.736;15.666;2023-03-04T06:39:33;98470.50;;;-1.84;100.00
55217;BME280;41086;46.736;15.666;2023-03-04T06:42:00;98461.75;;;-1.80;100.00
55217;BME280;41086;46.736;15.666;2023-03-04T06:44:27;98471.09;;;-1.71;100.00
55217;BME280;41086;46.736;15.666;2023-03-04T06:46:54;98470.34;;;-1.76;100.00
55217;BME280;41086;46.736;15.666;2023-03-04T06:49:21;98478.31;;;-1.86;100.00
55217;BME280;41086;46.736;15.666;2023-03-04T06:51:47;98486.47;;;-2.06;100.00
55217;BME280;41086;46.736;15.666;2023-03-04T06:54:14;98476.91;;;-2.04;100.00
55217;BME280;41086;46.736;15.666;2023-03-04T06:56:41;98474.28;;;-2.01;100.00
55217;BME280;41086;46.736;15.666;2023-03-04T06:59:07;98481.44;;;-2.15;100.00
55217;BME280;41086;46.736;15.666;2023-03-04T07:01:34;98480.50;;;-2.11;100.00
55217;BME280;41086;46.736;15.666;2023-03-04T07:04:02;98476.28;;;-2.18;100.00
55217;BME280;41086;46.736;15.666;2023-03-04T07:06:29;98469.47;;;-2.22;100.00
55217;BME280;41086;46.736;15.666;2023-03-04T07:08:56;98483.16;;;-2.14;100.00
55217;BME280;41086;46.736;15.666;2023-03-04T07:11:24;98477.25;;;-2.24;100.00
55217;BME280;41086;46.736;15.666;2023-03-04T07:13:51;98483.25;;;-2.18;100.00
55217;BME280;41086;46.736;15.666;2023-03-04T07:16:20;98478.69;;;-2.06;100.00
55217;BME280;41086;46.736;15.666;2023-03-04T07:18:47;98479.53;;;-2.05;100.00
55217;BME280;41086;46.736;15.666;2023-03-04T07:21:15;98479.59;;;-2.08;100.00
55217;BME280;41086;46.736;15.666;2023-03-04T07:23:42;98461.50;;;-2.13;100.00
55217;BME280;41086;46.736;15.666;2023-03-04T07:26:09;98480.31;;;-2.00;100.00
55217;BME280;41086;46.736;15.666;2023-03-04T07:28:36;98478.56;;;-1.98;100.00
55217;BME280;41086;46.736;15.666;2023-03-04T07:31:18;98474.09;;;-1.91;100.00
55217;BME280;41086;46.736;15.666;2023-03-04T07:33:46;98474.03;;;-1.88;100.00
55217;BME280;41086;46.736;15.666;2023-03-04T07:36:14;98467.09;;;-1.88;100.00
55217;BME280;41086;46.736;15.666;2023-03-04T07:38:45;98474.53;;;-1.69;100.00
55217;BME280;41086;46.736;15.666;2023-03-04T07:41:14;98460.50;;;-1.61;100.00
55217;BME280;41086;46.736;15.666;2023-03-04T07:43:41;98466.03;;;-1.34;100.00
55217;BME280;41086;46.736;15.666;2023-03-04T07:46:08;98464.13;;;-1.26;100.00
55217;BME280;41086;46.736;15.666;2023-03-04T07:48:35;98469.53;;;-1.37;100.00
55217;BME280;41086;46.736;15.666;2023-03-04T07:51:17;98455.44;;;-1.25;100.00
55217;BME280;41086;46.736;15.666;2023-03-04T07:53:46;98455.94;;;-1.09;100.00
55217;BME280;41086;46.736;15.666;2023-03-04T07:56:15;98457.22;;;-0.88;100.00
55217;BME280;41086;46.736;15.666;2023-03-04T07:58:43;98457.97;;;-0.83;100.00
55217;BME280;41086;46.736;15.666;2023-03-04T08:01:10;98458.75;;;-0.79;100.00
55217;BME280;41086;46.736;15.666;2023-03-04T08:03:37;98457.66;;;-0.71;100.00
55217;BME280;41086;46.736;15.666;2023-03-04T08:06:09;98459.06;;;-0.56;100.00
55217;BME280;41086;46.736;15.666;2023-03-04T08:08:36;98440.66;;;-0.48;100.00
55217;BME280;41086;46.736;15.666;2023-03-04T08:11:07;98452.50;;;-0.36;100.00
55217;BME280;41086;46.736;15.666;2023-03-04T08:13:34;98456.44;;;-0.20;100.00
55217;BME280;41086;46.736;15.666;2023-03-04T08:16:01;98458.53;;;0.00;100.00
55217;BME280;41086;46.736;15.666;2023-03-04T08:18:29;98450.84;;;0.27;100.00
55217;BME280;41086;46.736;15.666;2023-03-04T08:20:55;98433.41;;;0.60;100.00
55217;BME280;41086;46.736;15.666;2023-03-04T08:23:23;98426.03;;;0.74;100.00
55217;BME280;41086;46.736;15.666;2023-03-04T08:25:52;98432.75;;;0.81;100.00
55217;BME280;41086;46.736;15.666;2023-03-04T08:28:19;98437.78;;;1.17;100.00
55217;BME280;41086;46.736;15.666;2023-03-04T08:30:51;98374.13;;;1.46;100.00
55217;BME280;41086;46.736;15.666;2023-03-04T08:33:18;98414.00;;;2.28;100.00
55217;BME280;41086;46.736;15.666;2023-03-04T08:35:46;98420.66;;;2.37;100.00
55217;BME280;41086;46.736;15.666;2023-03-04T08:38:13;98408.44;;;2.61;100.00
55217;BME280;41086;46.736;15.666;2023-03-04T08:40:40;98409.25;;;2.85;100.00
55217;BME280;41086;46.736;15.666;2023-03-04T08:43:06;98408.53;;;3.03;100.00
55217;BME280;41086;46.736;15.666;2023-03-04T08:45:33;98417.91;;;3.31;100.00
55217;BME280;41086;46.736;15.666;2023-03-04T08:48:00;98401.66;;;3.45;100.00
55217;BME280;41086;46.736;15.666;2023-03-04T08:50:27;98421.78;;;3.65;100.00
55217;BME280;41086;46.736;15.666;2023-03-04T08:52:54;98414.22;;;3.99;100.00
55217;BME280;41086;46.736;15.666;2023-03-04T08:55:21;98422.50;;;4.30;100.00
55217;BME280;41086;46.736;15.666;2023-03-04T08:57:47;98406.72;;;4.88;100.00
55217;BME280;41086;46.736;15.666;2023-03-04T09:00:14;98393.06;;;5.54;100.00
55217;BME280;41086;46.736;15.666;2023-03-04T09:02:41;98418.00;;;5.99;100.00
55217;BME280;41086;46.736;15.666;2023-03-04T09:05:08;98480.97;;;6.37;100.00
55217;BME280;41086;46.736;15.666;2023-03-04T09:07:35;98503.66;;;6.90;100.00
55217;BME280;41086;46.736;15.666;2023-03-04T09:10:03;98538.13;;;7.35;100.00
55217;BME280;41086;46.736;15.666;2023-03-04T09:12:29;98561.91;;;7.66;100.00
55217;BME280;41086;46.736;15.666;2023-03-04T09:14:56;98560.59;;;8.05;100.00
55217;BME280;41086;46.736;15.666;2023-03-04T09:17:37;98567.75;;;8.49;100.00
55217;BME280;41086;46.736;15.666;2023-03-04T09:20:04;98567.44;;;8.70;100.00
55217;BME280;41086;46.736;15.666;2023-03-04T09:22:31;98560.69;;;8.94;100.00
55217;BME280;41086;46.736;15.666;2023-03-04T09:24:58;98565.97;;;9.08;100.00
55217;BME280;41086;46.736;15.666;2023-03-04T09:27:24;98558.03;;;9.37;100.00
55217;BME280;41086;46.736;15.666;2023-03-04T09:29:51;98554.69;;;9.62;100.00
55217;BME280;41086;46.736;15.666;2023-03-04T09:32:18;98561.19;;;9.85;100.00
55217;BME280;41086;46.736;15.666;2023-03-04T09:34:45;98538.28;;;10.11;100.00
55217;BME280;41086;46.736;15.666;2023-03-04T09:37:12;98548.66;;;10.29;100.00
55217;BME280;41086;46.736;15.666;2023-03-04T09:39:38;98544.34;;;10.40;100.00
55217;BME280;41086;46.736;15.666;2023-03-04T09:42:07;98546.63;;;10.72;100.00
55217;BME280;41086;46.736;15.666;2023-03-04T09:44:40;98542.91;;;11.13;100.00
55217;BME280;41086;46.736;15.666;2023-03-04T09:47:12;98534.16;;;11.49;100.00
55217;BME280;41086;46.736;15.666;2023-03-04T09:49:44;98527.63;;;11.66;100.00
55217;BME280;41086;46.736;15.666;2023-03-04T09:52:33;98526.50;;;11.58;100.00
55217;BME280;41086;46.736;15.666;2023-03-04T10:00:54;98525.81;;;11.67;100.00
55217;BME280;41086;46.736;15.666;2023-03-04T10:03:24;98526.94;;;12.12;100.00
55217;BME280;41086;46.736;15.666;2023-03-04T10:06:05;98515.84;;;12.54;100.00
55217;BME280;41086;46.736;15.666;2023-03-04T10:09:03;98513.16;;;12.89;94.19
55217;BME280;41086;46.736;15.666;2023-03-04T10:11:36;98510.03;;;13.18;96.12
55217;BME280;41086;46.736;15.666;2023-03-04T10:16:58;98490.41;;;13.64;92.77
55217;BME280;41086;46.736;15.666;2023-03-04T10:22:44;98490.38;;;14.18;82.66
55217;BME280;41086;46.736;15.666;2023-03-04T10:25:30;98489.38;;;13.99;78.75
55217;BME280;41086;46.736;15.666;2023-03-04T10:28:43;98483.22;;;13.87;86.20
55217;BME280;41086;46.736;15.666;2023-03-04T10:33:35;98476.31;;;14.16;95.32
55217;BME280;41086;46.736;15.666;2023-03-04T10:36:05;98475.47;;;14.16;88.19
55217;BME280;41086;46.736;15.666;2023-03-04T10:38:38;98468.69;;;14.44;87.98
55217;BME280;41086;46.736;15.666;2023-03-04T10:41:13;98471.16;;;14.36;78.65
55217;BME280;41086;46.736;15.666;2023-03-04T10:43:40;98457.66;;;14.16;88.87
55217;BME280;41086;46.736;15.666;2023-03-04T10:46:10;98455.94;;;14.48;83.50
55217;BME280;41086;46.736;15.666;2023-03-04T10:48:40;98460.22;;;14.60;81.14
55217;BME280;41086;46.736;15.666;2023-03-04T10:51:24;98450.69;;;15.19;82.83
55217;BME280;41086;46.736;15.666;2023-03-04T10:54:41;98428.94;;;14.93;68.26
55217;BME280;41086;46.736;15.666;2023-03-04T10:56:42;98444.00;;;15.34;69.96
55217;BME280;41086;46.736;15.666;2023-03-04T10:59:42;98432.38;;;15.55;70.49
55217;BME280;41086;46.736;15.666;2023-03-04T11:02:22;98438.16;;;15.50;69.57
55217;BME280;41086;46.736;15.666;2023-03-04T11:07:47;98428.34;;;16.38;65.11
55217;BME280;41086;46.736;15.666;2023-03-04T11:10:27;98424.72;;;16.20;63.96
55217;BME280;41086;46.736;15.666;2023-03-04T11:15:50;98414.72;;;16.22;67.71
55217;BME280;41086;46.736;15.666;2023-03-04T11:18:22;98416.41;;;16.23;70.21
55217;BME280;41086;46.736;15.666;2023-03-04T11:20:53;98417.19;;;16.52;62.33
55217;BME280;41086;46.736;15.666;2023-03-04T11:23:39;98415.06;;;16.66;57.73
55217;BME280;41086;46.736;15.666;2023-03-04T11:26:14;98413.78;;;16.70;54.87
55217;BME280;41086;46.736;15.666;2023-03-04T11:29:02;98402.44;;;14.91;57.24
55217;BME280;41086;46.736;15.666;2023-03-04T11:31:35;98398.81;;;15.62;61.25
55217;BME280;41086;46.736;15.666;2023-03-04T11:37:06;98397.22;;;16.47;56.05
55217;BME280;41086;46.736;15.666;2023-03-04T11:39:48;98388.28;;;16.09;53.33
55217;BME280;41086;46.736;15.666;2023-03-04T11:42:38;98396.19;;;15.71;50.79
55217;BME280;41086;46.736;15.666;2023-03-04T11:45:30;98379.72;;;15.86;53.18
55217;BME280;41086;46.736;15.666;2023-03-04T11:50:52;98376.81;;;16.46;52.46
55217;BME280;41086;46.736;15.666;2023-03-04T11:56:03;98366.09;;;16.93;49.56
55217;BME280;41086;46.736;15.666;2023-03-04T12:15:27;98333.03;;;16.47;48.72
55217;BME280;41086;46.736;15.666;2023-03-04T12:18:17;98320.13;;;16.42;47.59
55217;BME280;41086;46.736;15.666;2023-03-04T12:28:56;98312.63;;;15.79;48.67
55217;BME280;41086;46.736;15.666;2023-03-04T12:31:44;98314.88;;;15.84;51.41
55217;BME280;41086;46.736;15.666;2023-03-04T12:34:31;98302.41;;;16.31;47.12
55217;BME280;41086;46.736;15.666;2023-03-04T12:40:15;98305.75;;;16.43;44.93
55217;BME280;41086;46.736;15.666;2023-03-04T12:45:56;98292.16;;;16.64;46.14
55217;BME280;41086;46.736;15.666;2023-03-04T12:48:40;98289.41;;;16.83;46.78
55217;BME280;41086;46.736;15.666;2023-03-04T12:54:01;98281.56;;;15.39;45.04
55217;BME280;41086;46.736;15.666;2023-03-04T12:56:51;98285.38;;;15.76;45.91
55217;BME280;41086;46.736;15.666;2023-03-04T12:59:21;98263.72;;;15.69;46.04
55217;BME280;41086;46.736;15.666;2023-03-04T13:10:23;98270.03;;;16.62;43.66
55217;BME280;41086;46.736;15.666;2023-03-04T13:12:54;98265.03;;;17.04;42.33
55217;BME280;41086;46.736;15.666;2023-03-04T13:17:52;98251.63;;;16.87;42.56
55217;BME280;41086;46.736;15.666;2023-03-04T13:25:40;98248.84;;;17.24;43.48
55217;BME280;41086;46.736;15.666;2023-03-04T13:41:22;98237.56;;;17.20;39.36
55217;BME280;41086;46.736;15.666;2023-03-04T13:43:51;98242.44;;;17.07;41.08
55217;BME280;41086;46.736;15.666;2023-03-04T13:54:10;98236.03;;;16.17;41.59
55217;BME280;41086;46.736;15.666;2023-03-04T13:57:25;98224.78;;;16.13;43.64
55217;BME280;41086;46.736;15.666;2023-03-04T14:00:11;98216.69;;;16.33;42.96
55217;BME280;41086;46.736;15.666;2023-03-04T14:02:38;98212.63;;;16.74;42.42
55217;BME280;41086;46.736;15.666;2023-03-04T14:05:05;98210.25;;;17.17;42.91
55217;BME280;41086;46.736;15.666;2023-03-04T14:07:34;98200.38;;;17.17;40.98
55217;BME280;41086;46.736;15.666;2023-03-04T14:12:47;98202.84;;;16.93;39.88
55217;BME280;41086;46.736;15.666;2023-03-04T14:15:18;98200.72;;;16.69;42.16
55217;BME280;41086;46.736;15.666;2023-03-04T14:17:50;98206.13;;;16.59;40.66
55217;BME280;41086;46.736;15.666;2023-03-04T14:20:35;98197.66;;;16.36;40.88
55217;BME280;41086;46.736;15.666;2023-03-04T14:23:21;98197.22;;;16.40;42.30
55217;BME280;41086;46.736;15.666;2023-03-04T14:25:49;98187.22;;;16.43;42.11
55217;BME280;41086;46.736;15.666;2023-03-04T14:28:19;98183.69;;;16.14;43.15
55217;BME280;41086;46.736;15.666;2023-03-04T14:30:54;98187.66;;;16.38;42.67
55217;BME280;41086;46.736;15.666;2023-03-04T14:33:28;98190.97;;;16.50;41.26
55217;BME280;41086;46.736;15.666;2023-03-04T14:35:59;98175.97;;;16.67;40.73
55217;BME280;41086;46.736;15.666;2023-03-04T14:38:30;98184.53;;;16.88;42.04
55217;BME280;41086;46.736;15.666;2023-03-04T14:41:15;98161.72;;;16.48;43.06
55217;BME280;41086;46.736;15.666;2023-03-04T14:43:58;98173.66;;;16.26;41.74